Time;durP1;ratioP1;P1;durP2;ratioP2;P2;SDS_P1;SDS_P2;PMS_P1;PMS_P2;Temp;Humidity;BMP_temperature;BMP_pressure;BME280_temperature;BME280_humidity;BME280_pressure;Samples;Min_cycle;Max_cycle;Signal;HPM_P1;HPM_P2
2022/09/23 00:00:33;;;;;;;4.65;1.50;;;11.50;86.20;;;;;;4952452;28;20061;-68
2022/09/23 00:02:59;;;;;;;1.73;1.10;;;11.50;86.20;;;;;;4946680;28;20047;-67
2022/09/23 00:05:26;;;;;;;2.53;1.38;;;11.50;86.40;;;;;;4946226;28;20061;-68
2022/09/23 00:07:52;;;;;;;6.70;1.58;;;11.50;86.50;;;;;;4950215;28;20047;-68
2022/09/23 00:10:17;;;;;;;3.53;1.17;;;11.50;86.20;;;;;;4950204;28;20047;-68
2022/09/23 00:12:43;;;;;;;6.45;1.55;;;11.50;86.20;;;;;;4933027;28;20055;-68
2022/09/23 00:15:10;;;;;;;2.47;1.50;;;11.50;86.30;;;;;;4949856;28;20043;-68
2022/09/23 00:17:36;;;;;;;3.00;1.35;;;11.50;86.30;;;;;;4934254;28;20349;-68
2022/09/23 00:20:01;;;;;;;5.63;1.17;;;11.40;86.30;;;;;;4947054;28;20122;-68
2022/09/23 00:22:27;;;;;;;2.47;1.30;;;11.40;86.40;;;;;;4947091;28;20079;-68
2022/09/23 00:24:53;;;;;;;2.35;1.40;;;11.50;86.50;;;;;;4933793;28;20472;-68
2022/09/23 00:27:20;;;;;;;2.40;1.33;;;11.40;86.50;;;;;;4947111;28;20066;-68
2022/09/23 00:29:46;;;;;;;3.03;1.38;;;11.40;86.50;;;;;;4933969;28;20456;-68
2022/09/23 00:32:12;;;;;;;3.90;1.23;;;11.40;86.50;;;;;;4949808;28;20051;-67
2022/09/23 00:34:38;;;;;;;3.55;1.35;;;11.40;86.90;;;;;;4933562;28;20384;-68
2022/09/23 00:37:04;;;;;;;2.63;1.27;;;11.40;86.80;;;;;;4915953;29;20110;-68
2022/09/23 00:39:30;;;;;;;3.47;1.52;;;11.40;86.80;;;;;;4930788;29;20550;-68
2022/09/23 00:41:55;;;;;;;4.22;1.30;;;11.40;86.50;;;;;;4948253;28;20134;-68
2022/09/23 00:44:47;;;;;;;4.85;1.35;;;11.40;86.50;;;;;;4925091;29;20051;-67
2022/09/23 00:47:19;;;;;;;3.63;1.20;;;11.40;86.60;;;;;;4932390;29;20134;-68
2022/09/23 00:49:45;;;;;;;2.22;1.20;;;11.40;86.50;;;;;;4950071;28;20042;-67
2022/09/23 00:52:14;;;;;;;8.40;1.52;;;11.30;86.70;;;;;;4928306;29;20533;-68
2022/09/23 00:54:40;;;;;;;3.38;1.40;;;11.30;86.80;;;;;;4948907;28;20054;-68
2022/09/23 00:57:06;;;;;;;4.43;1.65;;;11.30;86.80;;;;;;4933044;29;20146;-68
2022/09/23 00:59:33;;;;;;;4.78;1.30;;;11.30;86.80;;;;;;4949555;28;20043;-68
2022/09/23 01:01:59;;;;;;;2.42;1.50;;;11.30;86.90;;;;;;4932246;28;20108;-68
2022/09/23 01:04:25;;;;;;;4.57;2.08;;;11.20;86.90;;;;;;4933844;29;20057;-68
2022/09/23 01:06:51;;;;;;;3.50;1.50;;;11.20;87.10;;;;;;4930415;28;20051;-69
2022/09/23 01:09:17;;;;;;;3.10;1.48;;;11.30;87.00;;;;;;4950065;28;20062;-68
2022/09/23 01:12:11;;;;;;;4.38;1.45;;;11.20;86.90;;;;;;4916127;29;20114;-67
2022/09/23 01:14:51;;;;;;;3.25;1.30;;;11.20;86.90;;;;;;4942617;28;20082;-67
2022/09/23 01:17:38;;;;;;;3.40;1.58;;;11.20;87.10;;;;;;4947376;28;20047;-67
2022/09/23 01:20:37;;;;;;;3.38;1.50;;;11.20;87.00;;;;;;4949964;28;20042;-68
2022/09/23 01:23:09;;;;;;;2.45;1.40;;;11.10;87.30;;;;;;4948603;28;20074;-68
2022/09/23 01:25:50;;;;;;;3.63;1.38;;;11.10;87.30;;;;;;4948123;28;20069;-68
2022/09/23 01:28:47;;;;;;;4.28;1.20;;;11.10;87.40;;;;;;4933128;29;20051;-68
2022/09/23 01:31:24;;;;;;;2.67;1.55;;;11.10;87.30;;;;;;4946286;28;20058;-68
2022/09/23 01:33:54;;;;;;;3.10;1.38;;;11.10;87.40;;;;;;4950296;28;20046;-68
2022/09/23 01:36:25;;;;;;;2.25;1.42;;;11.10;87.60;;;;;;4930660;29;20058;-68
2022/09/23 01:39:11;;;;;;;4.68;1.60;;;11.10;87.40;;;;;;4932578;28;20051;-68
2022/09/23 01:42:04;;;;;;;2.70;1.40;;;11.10;87.50;;;;;;4949012;28;20051;-68
2022/09/23 01:44:49;;;;;;;3.95;1.65;;;11.10;87.50;;;;;;4932251;29;20079;-68
2022/09/23 01:47:24;;;;;;;4.57;1.40;;;11.10;87.40;;;;;;4946474;28;20098;-67
2022/09/23 01:49:53;;;;;;;4.95;1.90;;;11.10;87.40;;;;;;4921424;28;20658;-67
2022/09/23 01:52:23;;;;;;;6.10;1.92;;;11.10;87.40;;;;;;4924697;28;20357;-68
2022/09/23 01:54:58;;;;;;;3.35;1.45;;;11.10;87.50;;;;;;4952438;28;20058;-68
2022/09/23 01:57:27;;;;;;;3.58;1.60;;;11.10;87.40;;;;;;4936461;28;20504;-68
2022/09/23 02:00:05;;;;;;;3.42;1.50;;;11.10;87.40;;;;;;4955668;28;20106;-67
2022/09/23 02:02:53;;;;;;;3.85;1.60;;;11.00;87.80;;;;;;4915273;29;20055;-67
2022/09/23 02:05:38;;;;;;;4.18;1.60;;;11.10;88.10;;;;;;4967601;28;20074;-68
2022/09/23 02:08:10;;;;;;;2.25;1.25;;;11.00;87.80;;;;;;4938849;28;20643;-68
2022/09/23 02:10:44;;;;;;;5.60;1.90;;;11.00;88.30;;;;;;4922819;29;20657;-68
2022/09/23 02:13:27;;;;;;;2.90;1.40;;;11.00;87.90;;;;;;4920256;28;20140;-68
2022/09/23 02:15:55;;;;;;;4.13;1.55;;;11.00;88.40;;;;;;4936200;29;20098;-68
2022/09/23 02:18:26;;;;;;;4.57;1.58;;;11.00;88.40;;;;;;4935773;28;20105;-68
2022/09/23 02:20:57;;;;;;;2.13;1.40;;;11.00;88.60;;;;;;4946922;28;20086;-68
2022/09/23 02:23:29;;;;;;;3.85;1.50;;;11.00;88.10;;;;;;4922264;28;20110;-68
2022/09/23 02:26:25;;;;;;;2.08;1.27;;;11.00;88.40;;;;;;4936291;29;20466;-68
2022/09/23 02:29:06;;;;;;;3.03;1.48;;;11.00;88.30;;;;;;4936909;28;20054;-68
2022/09/23 02:31:40;;;;;;;2.95;1.60;;;11.00;88.40;;;;;;4935964;29;20058;-68
2022/09/23 02:34:34;;;;;;;4.20;1.80;;;11.00;88.10;;;;;;4949420;28;20149;-68
2022/09/23 02:37:00;;;;;;;3.30;1.50;;;10.90;88.30;;;;;;4949162;28;20467;-68
2022/09/23 02:39:28;;;;;;;3.13;1.48;;;10.90;88.80;;;;;;4951775;28;20150;-67
2022/09/23 02:42:25;;;;;;;3.95;1.75;;;10.90;88.50;;;;;;4938606;28;20047;-68
2022/09/23 02:44:51;;;;;;;4.17;1.57;;;10.90;88.90;;;;;;4939972;28;20050;-68
2022/09/23 02:47:17;;;;;;;5.68;1.80;;;10.90;89.10;;;;;;4950407;28;20055;-68
2022/09/23 02:49:42;;;;;;;3.03;1.50;;;10.90;88.70;;;;;;4935275;29;20058;-68
2022/09/23 02:52:10;;;;;;;4.18;1.60;;;10.90;89.00;;;;;;4920582;29;20058;-68
2022/09/23 02:54:36;;;;;;;7.68;1.75;;;10.80;88.90;;;;;;4937371;28;20058;-68
2022/09/23 02:57:04;;;;;;;2.92;1.30;;;10.80;89.40;;;;;;4917982;29;20050;-68
2022/09/23 02:59:30;;;;;;;5.47;1.60;;;10.70;89.60;;;;;;4902521;28;20809;-67
2022/09/23 03:02:21;;;;;;;3.17;1.50;;;10.70;89.10;;;;;;4951452;28;20082;-68
2022/09/23 03:05:02;;;;;;;4.43;1.90;;;10.70;89.20;;;;;;4947223;28;20050;-68
2022/09/23 03:08:05;;;;;;;4.13;1.95;;;10.70;89.00;;;;;;4951595;28;20058;-68
2022/09/23 03:11:16;;;;;;;4.25;1.60;;;10.70;89.40;;;;;;4950372;28;20055;-67
2022/09/23 03:13:57;;;;;;;2.75;1.75;;;10.60;89.50;;;;;;4928720;28;20039;-68
2022/09/23 03:16:31;;;;;;;3.95;1.67;;;10.60;89.80;;;;;;4951726;28;20214;-67
2022/09/23 03:19:20;;;;;;;3.00;1.67;;;10.50;90.00;;;;;;4948100;28;20345;-68
2022/09/23 03:22:01;;;;;;;4.40;1.70;;;10.50;90.10;;;;;;4950071;28;20051;-68
2022/09/23 03:24:30;;;;;;;2.97;1.63;;;10.50;90.10;;;;;;4949770;28;20050;-67
2022/09/23 03:26:59;;;;;;;2.40;1.55;;;10.50;90.20;;;;;;4902634;29;20058;-68
2022/09/23 03:29:24;;;;;;;5.60;1.90;;;10.50;90.20;;;;;;4935379;28;20492;-67
2022/09/23 03:31:50;;;;;;;4.25;2.08;;;10.40;90.10;;;;;;4953319;28;20047;-68
2022/09/23 03:34:21;;;;;;;5.78;1.73;;;10.40;90.20;;;;;;4918898;28;20492;-68
2022/09/23 03:37:10;;;;;;;4.65;1.98;;;10.40;90.30;;;;;;4933550;28;20055;-67
2022/09/23 03:39:41;;;;;;;;;;;10.30;90.30;;;;;;4950288;28;20364;-67
2022/09/23 03:42:11;;;;;;;3.78;1.98;;;10.30;90.30;;;;;;4949511;28;19981;-67
2022/09/23 03:44:38;;;;;;;3.03;1.73;;;10.30;90.70;;;;;;4945467;28;20089;-68
2022/09/23 03:47:04;;;;;;;4.35;1.77;;;10.40;90.60;;;;;;4933962;29;20047;-68
2022/09/23 03:49:34;;;;;;;3.60;1.77;;;10.30;90.50;;;;;;4934501;28;20653;-67
2022/09/23 03:52:01;;;;;;;4.03;1.90;;;10.30;90.50;;;;;;4908605;29;20791;-67
2022/09/23 03:54:28;;;;;;;3.00;1.90;;;10.40;90.70;;;;;;4949820;28;20082;-67
2022/09/23 03:56:57;;;;;;;3.83;1.75;;;10.40;90.40;;;;;;4949296;28;20050;-68
2022/09/23 03:59:26;;;;;;;3.85;1.70;;;10.30;90.40;;;;;;4931394;28;20059;-67
2022/09/23 04:01:52;;;;;;;3.78;1.98;;;10.20;90.30;;;;;;4932610;29;20043;-67
2022/09/23 04:04:18;;;;;;;5.65;1.80;;;10.20;90.70;;;;;;4915069;28;20047;-68
2022/09/23 04:06:44;;;;;;;5.38;1.90;;;10.20;90.70;;;;;;4950117;28;20126;-66
2022/09/23 04:09:09;;;;;;;4.68;1.92;;;10.10;90.70;;;;;;4953067;28;20047;-67
2022/09/23 04:11:35;;;;;;;2.97;1.80;;;10.10;90.80;;;;;;4917145;28;20057;-68
2022/09/23 04:14:01;;;;;;;5.10;2.00;;;10.10;90.90;;;;;;4933533;29;20058;-68
2022/09/23 04:16:27;;;;;;;4.20;1.70;;;10.00;90.80;;;;;;4947270;28;20459;-67
2022/09/23 04:18:52;;;;;;;3.80;1.58;;;10.00;91.00;;;;;;4938116;29;20155;-67
2022/09/23 04:21:18;;;;;;;3.67;2.00;;;10.00;91.00;;;;;;4933157;29;20126;-68
2022/09/23 04:23:45;;;;;;;5.13;2.03;;;10.00;91.00;;;;;;4948788;28;20496;-67
2022/09/23 04:26:12;;;;;;;3.97;2.15;;;9.90;91.00;;;;;;4931132;29;20452;-67
2022/09/23 04:28:38;;;;;;;6.55;2.53;;;9.90;91.10;;;;;;4933758;28;20081;-67
2022/09/23 04:31:05;;;;;;;4.25;1.77;;;9.90;91.00;;;;;;4931075;29;20469;-68
2022/09/23 04:33:31;;;;;;;4.63;2.13;;;9.90;90.90;;;;;;4943930;28;20402;-68
2022/09/23 04:35:56;;;;;;;4.07;1.75;;;9.90;91.10;;;;;;4939831;29;20043;-68
2022/09/23 04:38:22;;;;;;;4.30;2.10;;;9.90;91.20;;;;;;4939145;28;20054;-68
2022/09/23 04:40:48;;;;;;;3.45;1.77;;;9.80;91.10;;;;;;4949105;28;20139;-67
2022/09/23 04:43:15;;;;;;;3.33;1.92;;;9.80;91.30;;;;;;4934365;29;20090;-69
2022/09/23 04:45:43;;;;;;;4.57;2.15;;;9.70;91.40;;;;;;4918498;28;20138;-68
2022/09/23 04:48:10;;;;;;;5.28;2.20;;;9.70;91.40;;;;;;4930167;29;20043;-72
2022/09/23 04:50:36;;;;;;;5.25;1.95;;;9.70;91.30;;;;;;4909329;28;20053;-67
2022/09/23 04:53:03;;;;;;;5.07;1.92;;;9.70;91.40;;;;;;4950401;28;20043;-68
2022/09/23 04:55:29;;;;;;;4.40;2.15;;;9.60;91.90;;;;;;4933531;29;20083;-67
2022/09/23 04:57:54;;;;;;;4.32;1.80;;;9.60;91.80;;;;;;4947762;28;20091;-68
2022/09/23 05:00:22;;;;;;;4.53;1.80;;;9.60;91.60;;;;;;4950084;28;20133;-67
2022/09/23 05:02:48;;;;;;;4.45;2.15;;;9.60;91.60;;;;;;4933437;28;20040;-69
2022/09/23 05:05:20;;;;;;;5.60;2.25;;;9.60;91.60;;;;;;4946415;28;20122;-68
2022/09/23 05:07:49;;;;;;;4.03;2.20;;;9.60;91.70;;;;;;4916251;28;20039;-68
2022/09/23 05:10:15;;;;;;;4.90;2.05;;;9.60;91.70;;;;;;4900451;29;20083;-68
2022/09/23 05:12:41;;;;;;;4.38;2.40;;;9.60;91.80;;;;;;4947302;28;20058;-68
2022/09/23 05:15:07;;;;;;;8.88;2.58;;;9.50;92.00;;;;;;4932437;29;20435;-67
2022/09/23 05:17:33;;;;;;;4.32;1.90;;;9.50;91.80;;;;;;4933146;29;20054;-68
2022/09/23 05:19:58;;;;;;;3.25;2.03;;;9.50;92.00;;;;;;4948976;28;20051;-68
2022/09/23 05:22:27;;;;;;;4.05;2.35;;;9.50;91.90;;;;;;4935537;28;20047;-68
2022/09/23 05:24:53;;;;;;;5.88;2.20;;;9.50;91.80;;;;;;4937593;28;20473;-67
2022/09/23 05:27:19;;;;;;;6.20;1.92;;;9.50;92.00;;;;;;4936894;29;20109;-68
2022/09/23 05:29:46;;;;;;;4.85;2.10;;;9.50;91.90;;;;;;4905931;28;20105;-68
2022/09/23 05:32:14;;;;;;;4.30;2.08;;;9.50;91.80;;;;;;4947858;28;21121;-68
2022/09/23 05:34:39;;;;;;;3.92;1.90;;;9.50;91.90;;;;;;4975314;28;20074;-68
2022/09/23 05:37:05;;;;;;;6.70;2.17;;;9.50;91.90;;;;;;4952380;28;20126;-68
2022/09/23 05:39:31;;;;;;;4.10;2.30;;;9.50;91.90;;;;;;4951289;28;20066;-67
2022/09/23 05:41:59;;;;;;;3.65;1.90;;;9.50;91.90;;;;;;4963730;28;20089;-68
2022/09/23 05:44:25;;;;;;;4.25;2.00;;;9.50;91.90;;;;;;4941142;28;20497;-68
2022/09/23 05:46:50;;;;;;;2.85;1.90;;;9.50;91.80;;;;;;4922130;28;20061;-67
2022/09/23 05:49:16;;;;;;;3.92;1.70;;;9.50;91.90;;;;;;4934210;29;20051;-67
2022/09/23 05:51:42;;;;;;;4.90;2.17;;;9.50;91.80;;;;;;4942494;28;20663;-66
2022/09/23 05:54:08;;;;;;;5.82;2.03;;;9.50;92.00;;;;;;4918289;28;20106;-67
2022/09/23 05:56:34;;;;;;;4.55;2.20;;;9.50;91.90;;;;;;4950155;28;20051;-68
2022/09/23 05:59:01;;;;;;;3.97;2.10;;;9.50;92.00;;;;;;4952430;28;20055;-68
2022/09/23 06:01:30;;;;;;;3.90;2.15;;;9.50;92.10;;;;;;4951843;28;20051;-68
2022/09/23 06:03:58;;;;;;;3.65;2.53;;;9.50;92.10;;;;;;4951272;28;20063;-68
2022/09/23 06:06:27;;;;;;;4.10;1.88;;;9.50;92.40;;;;;;4949238;28;20059;-68
2022/09/23 06:08:53;;;;;;;4.50;2.33;;;9.50;92.30;;;;;;4937041;28;20058;-64
2022/09/23 06:11:21;;;;;;;5.63;2.42;;;9.60;92.20;;;;;;4931479;29;20074;-64
2022/09/23 06:13:47;;;;;;;4.35;2.28;;;9.60;92.20;;;;;;4920102;29;20057;-65
2022/09/23 06:16:14;;;;;;;4.15;1.70;;;9.60;92.00;;;;;;4920262;28;20047;-66
2022/09/23 06:18:43;;;;;;;4.43;2.20;;;9.70;91.90;;;;;;4951740;28;20452;-65
2022/09/23 06:21:13;;;;;;;7.20;2.50;;;9.70;91.90;;;;;;4928682;28;20059;-66
2022/09/23 06:23:39;;;;;;;3.65;1.90;;;9.80;92.10;;;;;;4917441;29;20062;-65
2022/09/23 06:26:06;;;;;;;4.50;2.00;;;9.80;91.90;;;;;;4950863;28;20051;-65
2022/09/23 06:28:34;;;;;;;4.10;2.08;;;9.90;92.20;;;;;;4915821;29;20122;-64
2022/09/23 06:31:03;;;;;;;5.05;2.40;;;9.90;91.90;;;;;;4952254;29;20051;-65
2022/09/23 06:33:29;;;;;;;3.95;2.03;;;9.90;91.80;;;;;;4950508;28;20505;-65
2022/09/23 06:35:57;;;;;;;3.65;2.25;;;10.00;91.80;;;;;;4931495;29;20105;-65
2022/09/23 06:38:24;;;;;;;5.30;2.10;;;10.00;91.80;;;;;;4933211;28;20503;-66
2022/09/23 06:40:53;;;;;;;4.57;1.80;;;10.00;91.70;;;;;;4935210;28;20273;-65
2022/09/23 06:43:18;;;;;;;;;;;10.10;91.40;;;;;;4952106;28;20047;-64
2022/09/23 06:45:44;;;;;;;11.50;2.38;;;10.10;91.40;;;;;;4934996;28;19914;-65
2022/09/23 06:48:10;;;;;;;6.88;3.83;;;10.20;91.40;;;;;;4915379;29;20060;-65
2022/09/23 06:50:36;;;;;;;6.03;3.50;;;10.20;91.40;;;;;;4935723;28;20058;-65
2022/09/23 06:53:03;;;;;;;5.43;2.10;;;10.20;91.30;;;;;;4913641;29;20047;-64
2022/09/23 06:55:29;;;;;;;5.63;2.28;;;10.30;91.20;;;;;;4918947;28;20110;-65
2022/09/23 06:57:57;;;;;;;5.45;2.17;;;10.30;91.20;;;;;;4936104;28;20051;-66
2022/09/23 07:00:24;;;;;;;3.80;1.83;;;10.40;91.20;;;;;;4937368;28;20051;-65
2022/09/23 07:02:49;;;;;;;5.30;1.60;;;10.50;91.30;;;;;;4950325;28;20384;-65
2022/09/23 07:05:16;;;;;;;3.83;1.60;;;10.50;91.20;;;;;;4956954;28;20102;-66
2022/09/23 07:07:45;;;;;;;2.97;1.55;;;10.50;91.10;;;;;;4949816;28;20051;-64
2022/09/23 07:10:10;;;;;;;3.45;1.60;;;10.70;91.10;;;;;;4904322;29;20047;-66
2022/09/23 07:12:37;;;;;;;4.03;1.88;;;10.70;90.90;;;;;;4950954;29;20536;-65
2022/09/23 07:15:05;;;;;;;2.70;1.60;;;10.80;91.10;;;;;;4917797;29;20043;-65
2022/09/23 07:17:32;;;;;;;4.07;1.80;;;10.90;90.80;;;;;;4935707;29;20051;-66
2022/09/23 07:19:59;;;;;;;4.75;1.67;;;11.00;90.80;;;;;;4951637;29;20650;-65
2022/09/23 07:22:26;;;;;;;4.50;1.60;;;11.10;90.60;;;;;;4951021;29;20098;-66
2022/09/23 07:24:55;;;;;;;2.58;1.80;;;11.10;90.40;;;;;;4933347;29;20054;-65
2022/09/23 07:27:28;;;;;;;2.67;1.45;;;11.20;90.50;;;;;;4918232;29;20490;-64
2022/09/23 07:29:53;;;;;;;2.67;1.30;;;11.20;90.10;;;;;;4935695;29;20050;-66
2022/09/23 07:32:20;;;;;;;3.63;1.42;;;11.30;90.20;;;;;;4935318;29;20047;-65
2022/09/23 07:34:46;;;;;;;5.57;1.50;;;11.40;90.10;;;;;;4919349;29;20048;-65
2022/09/23 07:37:13;;;;;;;3.38;1.60;;;11.50;90.10;;;;;;4961138;28;20097;-65
2022/09/23 07:39:39;;;;;;;4.00;1.40;;;11.60;90.10;;;;;;4934526;29;20058;-68
2022/09/23 07:42:05;;;;;;;3.75;1.88;;;11.70;90.00;;;;;;4954944;28;20059;-66
2022/09/23 07:44:31;;;;;;;2.20;1.35;;;11.70;89.70;;;;;;4950817;29;20125;-68
2022/09/23 07:46:58;;;;;;;4.43;1.35;;;11.80;89.70;;;;;;4950085;28;20456;-66
2022/09/23 07:49:25;;;;;;;4.68;1.52;;;11.80;88.40;;;;;;4919303;29;20058;-65
2022/09/23 07:51:51;;;;;;;2.58;1.55;;;11.90;88.70;;;;;;4934172;29;20054;-66
2022/09/23 07:54:17;;;;;;;7.95;2.78;;;11.90;88.60;;;;;;4950836;28;20101;-66
2022/09/23 07:56:43;;;;;;;6.03;3.00;;;11.90;88.10;;;;;;4980964;28;20401;-64
2022/09/23 07:59:13;;;;;;;3.50;1.67;;;11.90;87.60;;;;;;4900510;29;20062;-65
2022/09/23 08:01:49;;;;;;;4.50;1.58;;;12.00;87.80;;;;;;4950495;28;20515;-65
2022/09/23 08:04:18;;;;;;;3.63;1.40;;;12.00;88.10;;;;;;4929756;29;20058;-65
2022/09/23 08:06:44;;;;;;;;;;;12.10;87.80;;;;;;4951770;28;20058;-65
2022/09/23 08:09:11;;;;;;;3.90;1.83;;;12.10;87.90;;;;;;4934631;29;19914;-64
2022/09/23 08:11:41;;;;;;;4.10;1.65;;;12.20;87.80;;;;;;4901865;29;20051;-68
2022/09/23 08:14:14;;;;;;;5.20;2.05;;;12.20;87.70;;;;;;4918593;29;20045;-68
2022/09/23 08:16:41;;;;;;;6.47;1.90;;;12.30;87.90;;;;;;4919016;29;20038;-67
2022/09/23 08:19:07;;;;;;;4.32;2.30;;;12.40;88.50;;;;;;4917234;29;20052;-68
2022/09/23 08:21:33;;;;;;;9.93;4.40;;;12.50;88.10;;;;;;4931472;29;20046;-69
2022/09/23 08:24:00;;;;;;;5.15;2.20;;;12.60;87.50;;;;;;4917714;29;20043;-65
2022/09/23 08:26:26;;;;;;;3.15;1.58;;;12.60;86.40;;;;;;4931532;29;20083;-64
2022/09/23 08:28:52;;;;;;;3.25;1.20;;;12.70;86.80;;;;;;4933938;29;20079;-65
2022/09/23 08:31:21;;;;;;;3.95;1.23;;;12.80;86.10;;;;;;4916241;29;20158;-66
2022/09/23 08:33:52;;;;;;;4.45;1.27;;;12.80;86.20;;;;;;4917351;29;20043;-65
2022/09/23 08:36:17;;;;;;;2.85;1.40;;;12.90;86.20;;;;;;4934760;29;20091;-66
2022/09/23 08:38:43;;;;;;;4.10;1.38;;;13.00;86.60;;;;;;4934222;29;20420;-66
2022/09/23 08:41:34;;;;;;;3.58;1.67;;;13.10;86.60;;;;;;4933823;29;20496;-65
2022/09/23 08:44:10;;;;;;;2.83;1.30;;;13.10;86.00;;;;;;4949704;29;20520;-66
2022/09/23 08:47:03;;;;;;;4.30;1.30;;;13.20;85.70;;;;;;4919174;29;20047;-66
2022/09/23 08:49:38;;;;;;;6.28;2.55;;;13.20;86.10;;;;;;4936027;29;20051;-65
2022/09/23 08:52:34;;;;;;;5.93;1.60;;;13.30;86.20;;;;;;4916410;29;20469;-65
2022/09/23 08:55:01;;;;;;;7.13;3.75;;;13.40;86.80;;;;;;4935809;29;20116;-66
2022/09/23 08:57:37;;;;;;;3.65;1.67;;;13.50;86.40;;;;;;4914273;29;20050;-65
2022/09/23 09:00:04;;;;;;;4.47;2.55;;;13.60;87.30;;;;;;4912630;29;20761;-65
2022/09/23 09:02:29;;;;;;;4.82;1.60;;;13.70;87.00;;;;;;4929652;29;20103;-66
2022/09/23 09:04:58;;;;;;;4.28;1.45;;;13.80;86.30;;;;;;4949425;29;20051;-65
2022/09/23 09:07:28;;;;;;;3.72;1.50;;;13.90;87.30;;;;;;4915255;29;20079;-66
2022/09/23 09:10:23;;;;;;;4.10;1.20;;;14.10;84.60;;;;;;4917186;29;20051;-66
2022/09/23 09:12:49;;;;;;;3.20;1.45;;;14.20;84.10;;;;;;4949328;28;20126;-65
2022/09/23 09:15:23;;;;;;;2.08;1.30;;;14.30;84.20;;;;;;4949526;29;20117;-66
2022/09/23 09:18:05;;;;;;;2.22;1.42;;;14.40;83.80;;;;;;4933143;29;20051;-65
2022/09/23 09:20:58;;;;;;;5.13;1.50;;;14.50;81.00;;;;;;4934008;29;20572;-65
2022/09/23 09:23:56;;;;;;;3.40;1.23;;;14.60;82.20;;;;;;4939456;29;20134;-65
2022/09/23 09:26:30;;;;;;;2.53;1.30;;;14.70;83.30;;;;;;4915385;29;20043;-67
2022/09/23 09:29:31;;;;;;;1.70;1.10;;;14.80;82.40;;;;;;4918323;29;20468;-65
2022/09/23 09:31:57;;;;;;;5.03;1.40;;;14.80;81.40;;;;;;4932041;29;20047;-64
2022/09/23 09:34:31;;;;;;;2.55;1.42;;;14.80;81.10;;;;;;4965068;28;20358;-65
2022/09/23 09:37:08;;;;;;;3.05;1.40;;;15.00;81.90;;;;;;4929906;29;20043;-68
2022/09/23 09:39:34;;;;;;;4.80;1.55;;;15.20;83.60;;;;;;4933744;29;20051;-68
2022/09/23 09:42:00;;;;;;;4.75;1.20;;;15.50;81.70;;;;;;4916674;29;20708;-69
2022/09/23 09:44:35;;;;;;;3.90;1.77;;;15.50;80.00;;;;;;4898477;29;20052;-69
2022/09/23 09:47:07;;;;;;;2.15;1.23;;;15.70;78.70;;;;;;4939784;29;20051;-68
2022/09/23 09:49:40;;;;;;;3.70;1.30;;;15.80;79.60;;;;;;4949140;29;20066;-69
2022/09/23 09:52:24;;;;;;;4.85;1.42;;;15.90;76.30;;;;;;4949473;28;20054;-68
2022/09/23 09:54:50;;;;;;;2.85;1.42;;;16.10;74.60;;;;;;4928746;29;20043;-69
2022/09/23 09:57:30;;;;;;;4.32;1.27;;;16.20;74.40;;;;;;4946797;28;20495;-69
2022/09/23 09:59:56;;;;;;;6.15;1.50;;;16.30;74.50;;;;;;4949832;28;20058;-69
2022/09/23 10:02:27;;;;;;;3.15;1.33;;;16.30;75.70;;;;;;4901545;29;20085;-69
2022/09/23 10:05:04;;;;;;;1.70;1.13;;;16.40;73.90;;;;;;4914249;29;20627;-69
2022/09/23 10:07:31;;;;;;;6.38;1.65;;;16.50;74.40;;;;;;4913897;29;20067;-69
2022/09/23 10:09:57;;;;;;;13.23;2.30;;;16.60;73.90;;;;;;4935507;29;20151;-69
2022/09/23 10:12:24;;;;;;;4.32;1.60;;;16.80;74.50;;;;;;4957204;28;20055;-69
2022/09/23 10:14:52;;;;;;;4.28;1.48;;;16.90;72.30;;;;;;4930426;29;20050;-69
2022/09/23 10:17:31;;;;;;;2.50;1.65;;;17.00;71.40;;;;;;4937121;29;20081;-68
2022/09/23 10:20:15;;;;;;;3.28;1.70;;;17.10;72.30;;;;;;4920816;29;20543;-69
2022/09/23 10:22:41;;;;;;;2.08;1.20;;;17.00;70.70;;;;;;4916334;29;20063;-69
2022/09/23 10:25:21;;;;;;;4.88;1.60;;;17.10;70.60;;;;;;4901964;29;20048;-68
2022/09/23 10:27:46;;;;;;;3.70;1.38;;;17.20;70.90;;;;;;4930317;29;20083;-69
2022/09/23 10:30:22;;;;;;;6.65;1.58;;;17.20;69.80;;;;;;4953344;29;20097;-69
2022/09/23 10:32:48;;;;;;;3.22;1.70;;;17.40;70.50;;;;;;4936040;29;20511;-69
2022/09/23 10:35:16;;;;;;;5.05;1.42;;;17.60;69.10;;;;;;4919418;29;20079;-68
2022/09/23 10:37:55;;;;;;;2.75;1.65;;;17.60;68.70;;;;;;4951792;28;20051;-68
2022/09/23 10:46:40;;;;;;;3.17;1.20;;;18.40;66.60;;;;;;4934158;29;20075;-68
2022/09/23 10:49:21;;;;;;;1.77;1.08;;;18.30;60.20;;;;;;4943097;29;20047;-69
2022/09/23 10:52:15;;;;;;;4.88;1.33;;;18.60;59.30;;;;;;4951122;28;20476;-68
2022/09/23 10:55:15;;;;;;;2.28;1.10;;;19.30;57.00;;;;;;4952828;28;20735;-66
2022/09/23 10:57:44;;;;;;;2.25;1.20;;;21.50;52.40;;;;;;4921810;28;20039;-66
2022/09/23 11:00:28;;;;;;;2.40;1.20;;;21.30;49.90;;;;;;4935663;29;20039;-65
2022/09/23 11:03:29;;;;;;;3.47;1.20;;;21.90;48.40;;;;;;4951092;28;20547;-64
2022/09/23 11:05:59;;;;;;;3.33;1.08;;;21.40;50.10;;;;;;4950704;28;20117;-70
2022/09/23 11:08:50;;;;;;;3.60;1.13;;;23.10;44.80;;;;;;4952706;28;20043;-69
2022/09/23 11:11:46;;;;;;;1.88;0.90;;;22.70;44.40;;;;;;4946942;29;20469;-69
2022/09/23 11:14:18;;;;;;;2.95;1.25;;;21.80;47.70;;;;;;4950162;29;20090;-70
2022/09/23 11:17:12;;;;;;;2.38;1.10;;;20.80;49.50;;;;;;4950660;29;20071;-69
2022/09/23 11:20:02;;;;;;;2.63;1.13;;;20.10;52.40;;;;;;4928220;29;20437;-69
2022/09/23 11:22:52;;;;;;;2.33;1.20;;;19.60;53.20;;;;;;4951955;28;20047;-70
2022/09/23 11:25:33;;;;;;;1.80;1.02;;;19.80;52.40;;;;;;4947164;29;20101;-68
2022/09/23 11:28:24;;;;;;;3.30;1.10;;;19.80;53.80;;;;;;4952462;29;20058;-68
2022/09/23 11:30:55;;;;;;;2.38;0.95;;;20.00;53.50;;;;;;4951515;29;20138;-68
2022/09/23 11:33:37;;;;;;;3.10;1.63;;;20.20;53.20;;;;;;4951363;29;20047;-68
2022/09/23 11:36:07;;;;;;;4.90;2.50;;;20.10;51.40;;;;;;4952821;28;20053;-67
2022/09/23 11:38:40;;;;;;;4.25;1.08;;;19.70;51.50;;;;;;4932616;29;20043;-67
2022/09/23 11:41:28;;;;;;;1.77;1.00;;;19.90;52.70;;;;;;4917540;29;20052;-67
2022/09/23 11:44:06;;;;;;;2.90;1.10;;;19.90;52.60;;;;;;4952670;28;20137;-67
2022/09/23 11:46:37;;;;;;;;;;;20.00;52.40;;;;;;4918519;29;20059;-67
2022/09/23 11:49:14;;;;;;;2.42;1.00;;;19.90;52.70;;;;;;4934038;29;19925;-67
2022/09/23 11:52:02;;;;;;;2.40;1.42;;;19.80;52.80;;;;;;4936233;29;20110;-66
2022/09/23 11:54:43;;;;;;;2.10;1.20;;;19.80;53.20;;;;;;4920333;29;20047;-68
2022/09/23 11:57:32;;;;;;;1.98;1.10;;;19.70;53.00;;;;;;4950022;29;20054;-67
2022/09/23 12:00:06;;;;;;;2.60;1.13;;;19.50;51.00;;;;;;4949004;28;20129;-67
2022/09/23 12:02:51;;;;;;;2.35;1.00;;;19.40;53.30;;;;;;4956037;28;20128;-67
2022/09/23 12:05:22;;;;;;;3.70;1.02;;;19.80;52.80;;;;;;4983692;28;20125;-68
2022/09/23 12:08:11;;;;;;;2.42;1.30;;;19.80;52.30;;;;;;4931514;29;20058;-67
2022/09/23 12:10:45;;;;;;;4.20;1.40;;;19.40;51.40;;;;;;4946013;29;20078;-67
2022/09/23 12:13:24;;;;;;;2.63;1.00;;;19.40;52.90;;;;;;4935012;29;20113;-68
2022/09/23 12:16:08;;;;;;;2.72;1.20;;;19.20;53.20;;;;;;4982401;28;20074;-67
2022/09/23 12:18:49;;;;;;;3.35;1.33;;;19.50;53.30;;;;;;4951535;28;20102;-68
2022/09/23 12:21:40;;;;;;;3.22;1.20;;;19.60;53.90;;;;;;4946330;28;20050;-68
2022/09/23 12:24:25;;;;;;;2.47;1.30;;;19.40;52.80;;;;;;4950993;28;20094;-67
2022/09/23 12:26:57;;;;;;;3.95;1.55;;;19.30;53.30;;;;;;4949718;29;20051;-68
2022/09/23 12:29:24;;;;;;;2.05;1.10;;;19.50;53.60;;;;;;4934745;29;20077;-67
2022/09/23 12:31:50;;;;;;;2.42;1.00;;;19.80;52.50;;;;;;4915374;29;20063;-68
2022/09/23 12:34:21;;;;;;;1.80;1.27;;;20.10;51.50;;;;;;4933372;29;20487;-68
2022/09/23 12:36:46;;;;;;;2.40;1.20;;;20.60;50.20;;;;;;4950337;29;20098;-69
2022/09/23 12:39:17;;;;;;;2.05;1.25;;;21.10;47.80;;;;;;4947366;29;20040;-69
2022/09/23 12:41:46;;;;;;;2.05;1.20;;;21.30;49.20;;;;;;4949940;29;20057;-70
2022/09/23 12:44:12;;;;;;;2.58;0.90;;;21.90;47.70;;;;;;4981303;28;20047;-69
2022/09/23 12:46:38;;;;;;;2.33;1.02;;;22.50;46.60;;;;;;4949567;29;20070;-69
2022/09/23 12:49:07;;;;;;;2.15;0.93;;;22.20;45.60;;;;;;4935094;29;20047;-69
2022/09/23 12:51:33;;;;;;;;;;;21.90;46.70;;;;;;4935586;29;20055;-69
2022/09/23 12:54:14;;;;;;;2.30;1.08;;;22.30;46.60;;;;;;4955208;28;20000;-69
2022/09/23 12:57:00;;;;;;;2.75;1.23;;;22.20;46.00;;;;;;4946439;29;20130;-69
2022/09/23 12:59:28;;;;;;;2.03;1.20;;;22.50;45.90;;;;;;4944494;28;20090;-69
2022/09/23 13:01:54;;;;;;;2.72;1.30;;;22.40;44.80;;;;;;4949830;29;20062;-69
2022/09/23 13:07:44;;;;;;;3.42;1.20;;;22.00;45.50;;;;;;4942064;29;20498;-68
2022/09/23 13:10:26;;;;;;;4.65;1.30;;;21.50;46.60;;;;;;4918102;29;20074;-68
2022/09/23 13:12:52;;;;;;;7.30;1.50;;;21.40;46.40;;;;;;4934878;29;20082;-68
2022/09/23 13:15:23;;;;;;;2.33;1.20;;;20.90;48.10;;;;;;4914989;29;20071;-67
2022/09/23 13:17:49;;;;;;;2.15;1.08;;;20.40;49.90;;;;;;4944840;29;20039;-67
2022/09/23 13:20:18;;;;;;;3.25;1.10;;;20.40;49.20;;;;;;4948488;29;20054;-68
2022/09/23 13:22:52;;;;;;;2.38;1.10;;;19.90;49.50;;;;;;4950496;29;20071;-69
2022/09/23 13:25:27;;;;;;;3.33;1.30;;;19.90;49.20;;;;;;4949313;29;20070;-67